createdAt,value
2022-09-10T00:03:23.257Z,100422.78
2022-09-10T00:08:24.958Z,100423.00
2022-09-10T00:13:26.590Z,100429.34
2022-09-10T00:18:29.351Z,100428.69
2022-09-10T00:23:30.979Z,100443.13
2022-09-10T00:28:32.609Z,100436.41
2022-09-10T00:33:34.281Z,100430.47
2022-09-10T00:38:35.971Z,100439.09
2022-09-10T00:44:06.070Z,100441.94
2022-09-10T00:49:23.546Z,100437.38
2022-09-10T00:54:25.251Z,100440.84
2022-09-10T00:59:26.883Z,100442.69
2022-09-10T01:04:28.851Z,100438.94
2022-09-10T01:09:30.615Z,100444.06
2022-09-10T01:14:59.626Z,100443.22
2022-09-10T01:20:25.950Z,100460.06
2022-09-10T01:25:54.022Z,100453.72
2022-09-10T01:30:58.138Z,100447.66
2022-09-10T01:36:09.607Z,100439.75
2022-09-10T01:41:11.250Z,100448.59
2022-09-10T01:46:50.747Z,100458.22
2022-09-10T01:52:12.222Z,100450.31
2022-09-10T01:57:44.909Z,100441.72
2022-09-10T02:03:02.910Z,100447.81
2022-09-10T02:08:20.152Z,100447.66
2022-09-10T02:13:22.719Z,100448.47
2022-09-10T02:19:02.632Z,100449.50
2022-09-10T02:24:06.618Z,100452.16
2022-09-10T02:29:10.119Z,100451.38
2022-09-10T02:34:15.756Z,100448.97
2022-09-10T02:39:20.108Z,100454.19
2022-09-10T02:44:22.002Z,100463.06
2022-09-10T02:49:23.721Z,100457.00
2022-09-10T02:54:26.280Z,100456.09
2022-09-10T02:59:29.129Z,100448.22
2022-09-10T03:04:32.070Z,100449.91
2022-09-10T03:09:35.628Z,100449.94
2022-09-10T03:14:37.369Z,100459.59
2022-09-10T03:19:40.024Z,100457.91
2022-09-10T03:24:41.994Z,100455.31
2022-09-10T03:29:44.312Z,100460.59
2022-09-10T03:34:47.485Z,100469.41
2022-09-10T03:39:52.552Z,100469.41
2022-09-10T03:44:56.258Z,100468.38
2022-09-10T03:49:59.782Z,100479.09
2022-09-10T03:55:01.555Z,100478.25
2022-09-10T04:00:03.853Z,100474.72
2022-09-10T04:05:17.492Z,100475.53
2022-09-10T04:10:20.505Z,100486.03
2022-09-10T04:15:23.519Z,100478.16
2022-09-10T04:20:27.634Z,100479.13
2022-09-10T04:25:36.177Z,100480.03
2022-09-10T04:30:38.524Z,100479.16
2022-09-10T04:35:40.239Z,100478.34
2022-09-10T04:40:42.011Z,100474.69
2022-09-10T04:45:43.779Z,100472.16
2022-09-10T04:51:05.506Z,100478.25
2022-09-10T04:56:12.811Z,100474.75
2022-09-10T05:01:14.638Z,100478.34
2022-09-10T05:06:18.817Z,100483.56
2022-09-10T05:11:22.095Z,100475.50
2022-09-10T05:16:23.844Z,100474.59
2022-09-10T05:21:26.185Z,100480.78
2022-09-10T05:26:29.895Z,100486.78
2022-09-10T05:31:33.888Z,100483.47
2022-09-10T05:36:36.292Z,100486.84
2022-09-10T05:41:38.498Z,100482.00
2022-09-10T05:46:40.441Z,100492.50
2022-09-10T05:51:47.796Z,100498.84
2022-09-10T05:56:51.149Z,100499.66
2022-09-10T06:01:52.982Z,100496.88
2022-09-10T06:06:56.342Z,100498.53
2022-09-10T06:11:58.054Z,100499.28
2022-09-10T06:16:59.904Z,100497.47
2022-09-10T06:22:03.994Z,100501.91
2022-09-10T06:27:10.754Z,100500.84
2022-09-10T06:32:14.357Z,100500.22
2022-09-10T06:37:18.639Z,100512.25
2022-09-10T06:42:20.756Z,100518.31
2022-09-10T06:53:28.636Z,100518.94
2022-09-10T06:58:31.393Z,100527.53
2022-09-10T07:03:33.657Z,100530.84
2022-09-10T07:08:35.558Z,100533.34
2022-09-10T07:13:37.800Z,100533.84
2022-09-10T07:18:40.227Z,100532.69
2022-09-10T07:23:44.303Z,100538.63
2022-09-10T07:28:47.413Z,100533.88
2022-09-10T07:33:50.131Z,100540.06
2022-09-10T07:38:57.600Z,100539.84
2022-09-10T07:44:00.098Z,100550.16
2022-09-10T07:49:07.032Z,100558.63
2022-09-10T07:54:08.792Z,100561.59
2022-09-10T07:59:14.037Z,100572.91
2022-09-10T08:04:20.870Z,100568.38
2022-09-10T08:09:22.759Z,100572.13
2022-09-10T08:14:29.005Z,100568.44
2022-09-10T08:19:31.357Z,100569.19
2022-09-10T08:24:33.148Z,100583.75
2022-09-10T08:29:35.162Z,100591.09
2022-09-10T08:34:37.060Z,100587.44
2022-09-10T08:39:42.864Z,100592.25
2022-09-10T08:45:10.675Z,100586.63
2022-09-10T08:50:18.774Z,100591.72
2022-09-10T08:55:21.543Z,100588.75
2022-09-10T09:00:33.341Z,100596.34
2022-09-10T09:05:52.191Z,100590.19
2022-09-10T09:11:11.007Z,100580.91
2022-09-10T09:16:26.072Z,100585.84
2022-09-10T09:21:36.040Z,100582.94
2022-09-10T09:26:37.987Z,100583.06
2022-09-10T09:31:42.847Z,100581.47
2022-09-10T09:36:48.437Z,100584.78
2022-09-10T09:41:53.915Z,100584.25
2022-09-10T09:46:56.611Z,100581.97
2022-09-10T09:51:58.726Z,100579.25
2022-09-10T09:57:01.517Z,100577.13
2022-09-10T10:02:12.942Z,100564.69
2022-09-10T10:07:14.603Z,100558.81
2022-09-10T10:12:19.183Z,100561.00
2022-09-10T10:17:34.923Z,100555.06
2022-09-10T10:22:37.739Z,100552.91
2022-09-10T10:27:42.639Z,100548.16
2022-09-10T10:32:57.682Z,100540.78
2022-09-10T10:38:31.132Z,100541.19
2022-09-10T10:43:58.329Z,100544.66
2022-09-10T10:49:19.852Z,100528.59
2022-09-10T10:54:30.454Z,100541.28
2022-09-10T10:59:46.172Z,100538.56
2022-09-10T11:04:50.343Z,100535.63
2022-09-10T11:10:02.326Z,100536.78
2022-09-10T11:15:20.976Z,100535.09
2022-09-10T11:20:31.214Z,100536.88
2022-09-10T11:25:37.414Z,100532.38
2022-09-10T11:30:39.191Z,100524.25
2022-09-10T11:36:01.949Z,100528.00
2022-09-10T11:41:14.632Z,100518.09
2022-09-10T11:46:40.852Z,100517.78
2022-09-10T11:51:42.525Z,100513.53
2022-09-10T11:57:18.556Z,100512.06
2022-09-10T12:07:40.449Z,100501.44
2022-09-10T12:12:43.337Z,100505.25
2022-09-10T12:17:46.008Z,100500.03
2022-09-10T12:22:50.489Z,100499.75
2022-09-10T12:27:53.443Z,100495.97
2022-09-10T12:32:55.618Z,100498.25
2022-09-10T12:38:35.690Z,100497.31
2022-09-10T12:43:40.418Z,100505.81
2022-09-10T12:48:55.311Z,100503.28
2022-09-10T12:54:21.862Z,100492.31
2022-09-10T13:00:02.369Z,100501.44
2022-09-10T13:05:17.844Z,100491.34
2022-09-10T13:10:24.049Z,100490.13
2022-09-10T13:15:27.682Z,100489.56
2022-09-10T13:20:31.840Z,100494.19
2022-09-10T13:25:36.798Z,100499.00
2022-09-10T13:30:38.487Z,100491.78
2022-09-10T13:36:05.584Z,100488.50
2022-09-10T13:41:31.691Z,100490.63
2022-09-10T13:46:45.307Z,100475.84
2022-09-10T13:51:51.850Z,100473.66
2022-09-10T13:56:54.008Z,100476.19
2022-09-10T14:01:55.941Z,100476.56
2022-09-10T14:07:03.265Z,100486.06
2022-09-10T14:12:06.486Z,100487.94
2022-09-10T14:17:15.298Z,100491.47
2022-09-10T14:22:25.149Z,100492.50
2022-09-10T14:27:33.739Z,100490.56
2022-09-10T14:32:37.276Z,100488.53
2022-09-10T14:37:38.942Z,100497.22
2022-09-10T14:42:40.550Z,100495.53
2022-09-10T14:47:51.076Z,100493.09
2022-09-10T14:52:52.828Z,100497.47
2022-09-10T14:57:55.450Z,100477.47
2022-09-10T15:02:57.272Z,100472.44
2022-09-10T15:07:58.912Z,100485.44
2022-09-10T15:13:00.565Z,100482.94
2022-09-10T15:18:02.774Z,100483.03
2022-09-10T15:23:04.407Z,100482.16
2022-09-10T15:28:07.475Z,100484.81
2022-09-10T15:33:12.327Z,100500.75
2022-09-10T15:38:14.568Z,100500.25
2022-09-10T15:43:19.087Z,100501.09
2022-09-10T15:48:20.731Z,100494.03
2022-09-10T15:53:22.388Z,100491.13
2022-09-10T15:58:25.579Z,100489.84
2022-09-10T16:03:27.401Z,100481.94
2022-09-10T16:08:29.024Z,100483.13
2022-09-10T16:13:30.667Z,100486.25
2022-09-10T16:18:32.388Z,100488.97
2022-09-10T16:23:34.335Z,100498.53
2022-09-10T16:28:35.973Z,100499.78
2022-09-10T16:33:37.578Z,100510.75
2022-09-10T16:38:40.020Z,100511.97
2022-09-10T16:43:42.052Z,100519.41
2022-09-10T16:48:43.881Z,100540.47
2022-09-10T16:53:47.914Z,100539.53
2022-09-10T16:58:49.602Z,100541.84
2022-09-10T17:03:51.987Z,100543.91
2022-09-10T17:08:54.472Z,100543.47
2022-09-10T17:13:58.990Z,100540.09
2022-09-10T17:19:10.859Z,100528.94
2022-09-10T17:24:12.933Z,100545.94
2022-09-10T17:29:16.088Z,100540.19
2022-09-10T17:34:18.132Z,100546.78
2022-09-10T17:39:19.764Z,100556.69
2022-09-10T17:44:21.734Z,100549.16
2022-09-10T17:49:24.393Z,100558.50
2022-09-10T17:54:26.067Z,100564.28
2022-09-10T17:59:27.765Z,100570.88
2022-09-10T18:04:29.627Z,100575.44
2022-09-10T18:09:31.254Z,100584.59
2022-09-10T18:14:32.869Z,100582.31
2022-09-10T18:19:34.559Z,100580.13
2022-09-10T18:24:37.492Z,100589.09
2022-09-10T18:29:41.408Z,100593.72
2022-09-10T18:34:43.054Z,100603.50
2022-09-10T18:39:45.889Z,100614.00
2022-09-10T18:44:47.597Z,100630.50
2022-09-10T18:49:50.038Z,100643.78
2022-09-10T18:54:51.652Z,100652.78
2022-09-10T18:59:55.012Z,100657.50
2022-09-10T19:05:12.646Z,100653.34
2022-09-10T19:10:14.403Z,100668.47
2022-09-10T19:15:16.024Z,100664.31
2022-09-10T19:20:17.655Z,100665.44
2022-09-10T19:25:19.286Z,100666.56
2022-09-10T19:30:20.914Z,100676.44
2022-09-10T19:35:22.529Z,100681.94
2022-09-10T19:40:24.200Z,100676.75
2022-09-10T19:45:27.226Z,100672.66
2022-09-10T19:50:29.110Z,100677.16
2022-09-10T19:55:30.717Z,100682.00
2022-09-10T20:00:46.478Z,100678.69
2022-09-10T20:05:49.211Z,100681.69
2022-09-10T20:10:51.863Z,100678.69
2022-09-10T20:15:53.825Z,100677.09
2022-09-10T20:20:55.508Z,100667.63
2022-09-10T20:25:58.051Z,100671.31
2022-09-10T20:31:00.468Z,100669.78
2022-09-10T20:36:03.719Z,100671.81
2022-09-10T20:41:05.839Z,100668.69
2022-09-10T20:46:15.886Z,100661.06
2022-09-10T20:51:20.944Z,100657.75
2022-09-10T20:56:23.000Z,100661.38
2022-09-10T21:01:25.823Z,100666.66
2022-09-10T21:06:29.014Z,100668.44
2022-09-10T21:11:31.797Z,100672.84
2022-09-10T21:16:41.190Z,100668.56
2022-09-10T21:21:44.877Z,100677.75
2022-09-10T21:26:46.533Z,100679.09
2022-09-10T21:31:50.477Z,100678.41
2022-09-10T21:36:52.109Z,100684.81
2022-09-10T21:41:53.708Z,100683.91
2022-09-10T21:46:55.459Z,100688.31
2022-09-10T21:51:57.457Z,100687.25
2022-09-10T21:56:59.061Z,100690.59
2022-09-10T22:02:00.832Z,100701.00
2022-09-10T22:07:04.828Z,100707.97
2022-09-10T22:12:06.666Z,100720.19
2022-09-10T22:17:08.302Z,100713.03
2022-09-10T22:22:11.185Z,100714.78
2022-09-10T22:27:12.888Z,100713.06
2022-09-10T22:32:15.676Z,100720.91
2022-09-10T22:37:17.856Z,100723.53
2022-09-10T22:42:21.084Z,100726.94
2022-09-10T22:47:22.682Z,100726.22
2022-09-10T22:52:24.295Z,100740.69
2022-09-10T22:57:25.969Z,100746.94
2022-09-10T23:02:28.817Z,100743.47
2022-09-10T23:07:30.442Z,100756.84
2022-09-10T23:12:32.113Z,100765.88
2022-09-10T23:17:34.148Z,100769.47
2022-09-10T23:22:35.767Z,100775.75
2022-09-10T23:27:37.389Z,100779.44
2022-09-10T23:32:39.003Z,100787.44
2022-09-10T23:37:40.629Z,100780.50
2022-09-10T23:42:42.244Z,100796.34
2022-09-10T23:47:43.833Z,100794.59
2022-09-10T23:52:45.437Z,100797.22
2022-09-10T23:57:47.274Z,100794.72
